Time;durP1;ratioP1;P1;durP2;ratioP2;P2;SDS_P1;SDS_P2;PMS_P1;PMS_P2;Temp;Humidity;BMP_temperature;BMP_pressure;BME280_temperature;BME280_humidity;BME280_pressure;Samples;Min_cycle;Max_cycle;Signal;HPM_P1;HPM_P2
2023/05/09 00:00:54;;;;;;;18.10;14.57;;;13.30;99.90;;;;;;5044806;28;20030;-78
2023/05/09 00:03:20;;;;;;;19.38;13.63;;;13.30;99.90;;;;;;5047373;28;20021;-79
2023/05/09 00:05:46;;;;;;;15.02;12.55;;;13.30;99.90;;;;;;5047748;28;20022;-79
2023/05/09 00:08:12;;;;;;;20.00;13.35;;;13.40;99.90;;;;;;5050684;28;20366;-79
2023/05/09 00:10:39;;;;;;;15.90;12.18;;;13.40;99.90;;;;;;5050331;28;20026;-79
2023/05/09 00:13:05;;;;;;;16.23;12.85;;;13.40;99.90;;;;;;5044627;28;20030;-80
2023/05/09 00:15:32;;;;;;;15.73;12.35;;;13.40;99.90;;;;;;5050111;28;20068;-79
2023/05/09 00:17:58;;;;;;;20.70;11.98;;;13.40;99.90;;;;;;5050186;28;20031;-79
2023/05/09 00:20:24;;;;;;;14.68;11.60;;;13.40;99.90;;;;;;5049317;28;20037;-79
2023/05/09 00:22:50;;;;;;;12.50;10.75;;;13.40;99.90;;;;;;5063050;28;20036;-79
2023/05/09 00:25:16;;;;;;;14.90;11.55;;;13.30;99.90;;;;;;5053339;28;20025;-79
2023/05/09 00:27:42;;;;;;;16.55;12.30;;;13.30;99.90;;;;;;5050048;28;20052;-78
2023/05/09 00:30:09;;;;;;;14.38;12.18;;;13.30;99.90;;;;;;5046945;28;20021;-80
2023/05/09 00:32:35;;;;;;;16.05;12.50;;;13.30;99.90;;;;;;5037056;28;20032;-79
2023/05/09 00:35:02;;;;;;;15.43;11.55;;;13.30;99.90;;;;;;5042409;28;20024;-78
2023/05/09 00:37:30;;;;;;;19.75;13.60;;;13.30;99.90;;;;;;5047327;28;20080;-79
2023/05/09 00:39:56;;;;;;;16.60;13.30;;;13.40;99.90;;;;;;5048707;28;20037;-79
2023/05/09 00:42:25;;;;;;;16.75;14.07;;;13.30;99.90;;;;;;5048499;28;20051;-79
2023/05/09 00:44:51;;;;;;;20.50;12.07;;;13.30;99.90;;;;;;5048931;28;20035;-78
2023/05/09 00:47:19;;;;;;;18.20;12.77;;;13.30;99.90;;;;;;5048067;28;20044;-79
2023/05/09 00:49:45;;;;;;;16.80;12.38;;;13.20;99.90;;;;;;5038027;28;20029;-79
2023/05/09 00:52:11;;;;;;;17.50;12.93;;;13.30;99.90;;;;;;5046854;28;20037;-78
2023/05/09 00:54:37;;;;;;;17.05;14.02;;;13.20;99.90;;;;;;5054887;28;20039;-79
2023/05/09 00:57:04;;;;;;;14.50;11.40;;;13.30;99.90;;;;;;5052556;28;20018;-79
2023/05/09 00:59:30;;;;;;;18.23;14.35;;;13.30;99.90;;;;;;5045407;28;20026;-80
2023/05/09 01:01:56;;;;;;;17.67;13.23;;;13.30;99.90;;;;;;5043421;28;20026;-79
2023/05/09 01:04:23;;;;;;;18.23;13.57;;;13.30;99.90;;;;;;5044738;28;20034;-78
2023/05/09 01:07:10;;;;;;;15.07;12.55;;;13.20;99.90;;;;;;5045856;28;20069;-79
2023/05/09 01:10:03;;;;;;;22.33;14.55;;;13.20;99.90;;;;;;5043297;28;20036;-79
2023/05/09 01:12:45;;;;;;;22.52;13.18;;;13.30;99.90;;;;;;5050178;28;20025;-79
2023/05/09 01:15:21;;;;;;;15.88;12.98;;;13.30;99.90;;;;;;5047318;28;20039;-79
2023/05/09 01:17:50;;;;;;;20.13;13.05;;;13.30;99.90;;;;;;5062786;28;20029;-78
2023/05/09 01:20:35;;;;;;;16.25;13.00;;;13.30;99.90;;;;;;5047644;28;20468;-78
2023/05/09 01:23:26;;;;;;;16.80;13.02;;;13.30;99.90;;;;;;5048533;28;20014;-79
2023/05/09 01:25:53;;;;;;;19.25;11.43;;;13.30;99.90;;;;;;5044374;28;20197;-79
2023/05/09 01:28:38;;;;;;;17.85;12.05;;;13.20;99.90;;;;;;5049212;28;20022;-79
2023/05/09 01:31:06;;;;;;;14.57;11.05;;;13.10;99.90;;;;;;5048987;28;20040;-79
2023/05/09 01:33:35;;;;;;;16.63;12.07;;;13.10;99.90;;;;;;5052957;28;20041;-79
2023/05/09 01:36:05;;;;;;;16.55;12.93;;;13.00;99.90;;;;;;5051899;28;20017;-79
2023/05/09 01:38:32;;;;;;;26.60;13.27;;;12.90;99.90;;;;;;5052178;28;20033;-80
2023/05/09 01:40:59;;;;;;;17.55;12.70;;;12.80;99.90;;;;;;5050090;28;20036;-78
2023/05/09 01:43:28;;;;;;;20.52;13.80;;;12.70;99.90;;;;;;5052013;28;20040;-79
2023/05/09 01:45:56;;;;;;;19.67;13.82;;;12.60;99.90;;;;;;5040649;28;20029;-79
2023/05/09 01:48:28;;;;;;;15.90;13.20;;;12.60;99.90;;;;;;5031382;28;20041;-80
2023/05/09 01:50:56;;;;;;;16.70;13.80;;;12.50;99.90;;;;;;5031657;28;20463;-79
2023/05/09 01:53:24;;;;;;;24.00;14.70;;;12.50;99.90;;;;;;5029127;28;20040;-79
2023/05/09 01:55:52;;;;;;;18.60;13.40;;;12.50;99.90;;;;;;5029438;28;20030;-80
2023/05/09 01:58:20;;;;;;;19.15;14.38;;;12.50;99.90;;;;;;5024015;28;20053;-79
2023/05/09 02:00:49;;;;;;;18.95;13.73;;;12.40;99.90;;;;;;5041106;28;20050;-79
2023/05/09 02:03:15;;;;;;;20.27;14.38;;;12.20;99.90;;;;;;5038231;28;20029;-78
2023/05/09 02:05:43;;;;;;;20.35;14.00;;;12.20;99.90;;;;;;5052416;28;20026;-79
2023/05/09 02:08:10;;;;;;;20.45;14.43;;;12.10;99.90;;;;;;5068064;28;20037;-79
2023/05/09 02:10:37;;;;;;;16.42;13.15;;;12.10;99.90;;;;;;5051518;28;20058;-79
2023/05/09 02:13:04;;;;;;;23.05;15.40;;;12.00;99.90;;;;;;5053213;28;20041;-78
2023/05/09 02:15:31;;;;;;;21.23;16.17;;;12.00;99.90;;;;;;5062640;28;20026;-79
2023/05/09 02:17:57;;;;;;;24.88;17.52;;;12.10;99.90;;;;;;5068066;28;20036;-79
2023/05/09 02:20:23;;;;;;;24.45;17.63;;;12.00;99.90;;;;;;5041818;28;20053;-79
2023/05/09 02:22:49;;;;;;;24.33;17.83;;;12.00;99.90;;;;;;5043066;28;20033;-79
2023/05/09 02:25:17;;;;;;;25.60;17.38;;;12.00;99.90;;;;;;5025471;28;20048;-80
2023/05/09 02:27:45;;;;;;;29.02;16.73;;;12.00;99.90;;;;;;5024347;28;20033;-78
2023/05/09 02:30:19;;;;;;;24.92;18.40;;;11.90;99.90;;;;;;5026357;28;20041;-79
2023/05/09 02:32:47;;;;;;;27.33;18.67;;;11.90;99.90;;;;;;5030833;28;20034;-79
2023/05/09 02:35:16;;;;;;;29.65;18.05;;;11.80;99.90;;;;;;5028526;28;20477;-79
2023/05/09 02:37:44;;;;;;;26.88;17.85;;;11.80;99.90;;;;;;5028228;28;20402;-79
2023/05/09 02:40:11;;;;;;;28.08;18.02;;;11.70;99.90;;;;;;5046551;28;20045;-79
2023/05/09 02:42:37;;;;;;;24.77;17.58;;;11.70;99.90;;;;;;5051875;28;20055;-78
2023/05/09 02:45:03;;;;;;;25.77;18.42;;;11.70;99.90;;;;;;5046673;28;20033;-78
2023/05/09 02:47:30;;;;;;;32.33;19.83;;;11.60;99.90;;;;;;5044869;28;20030;-79
2023/05/09 02:49:57;;;;;;;24.83;17.75;;;11.60;99.90;;;;;;5056194;28;20021;-79
2023/05/09 02:52:24;;;;;;;30.75;17.00;;;11.50;99.90;;;;;;5052645;28;20035;-79
2023/05/09 02:54:50;;;;;;;23.67;16.67;;;11.50;99.90;;;;;;5057055;28;20031;-79
2023/05/09 02:57:16;;;;;;;21.92;15.75;;;11.40;99.90;;;;;;5049294;28;20063;-79
2023/05/09 02:59:42;;;;;;;24.02;16.92;;;11.30;99.90;;;;;;5043548;28;20049;-80
2023/05/09 03:02:08;;;;;;;23.77;16.23;;;11.30;99.90;;;;;;5069041;28;20052;-79
2023/05/09 03:04:35;;;;;;;23.65;17.00;;;11.30;99.90;;;;;;5053056;28;20042;-79
2023/05/09 03:07:01;;;;;;;26.55;16.67;;;11.40;99.90;;;;;;5051977;28;20032;-79
2023/05/09 03:09:31;;;;;;;25.80;17.60;;;11.30;99.90;;;;;;5034820;28;20037;-79
2023/05/09 03:11:57;;;;;;;26.83;16.98;;;11.30;99.90;;;;;;5051654;28;20041;-79
2023/05/09 03:14:23;;;;;;;23.67;17.73;;;11.30;99.90;;;;;;5052293;28;20048;-79
2023/05/09 03:16:50;;;;;;;23.75;16.88;;;11.20;99.90;;;;;;5059730;28;20056;-79
2023/05/09 03:19:24;;;;;;;24.67;17.20;;;11.20;99.90;;;;;;5060365;28;20042;-79
2023/05/09 03:21:50;;;;;;;22.83;17.15;;;11.20;99.90;;;;;;5051936;28;20045;-78
2023/05/09 03:24:17;;;;;;;28.75;18.70;;;11.20;99.90;;;;;;5062868;28;20060;-79
2023/05/09 03:26:43;;;;;;;26.02;18.60;;;11.20;99.90;;;;;;5045127;28;20039;-79
2023/05/09 03:29:09;;;;;;;25.95;17.75;;;11.20;99.90;;;;;;5063036;28;20037;-78
2023/05/09 03:31:37;;;;;;;23.05;17.60;;;11.20;99.90;;;;;;5049881;28;20022;-79
2023/05/09 03:34:03;;;;;;;28.45;17.45;;;11.20;99.90;;;;;;5067140;28;20033;-79
2023/05/09 03:36:30;;;;;;;24.20;17.90;;;11.20;99.90;;;;;;5066604;28;20041;-79
2023/05/09 03:38:57;;;;;;;21.00;15.98;;;11.20;99.90;;;;;;5052387;28;20028;-79
2023/05/09 03:41:23;;;;;;;23.75;15.95;;;11.20;99.90;;;;;;5068157;28;20025;-80
2023/05/09 03:43:49;;;;;;;20.98;16.17;;;11.20;99.90;;;;;;5066425;28;20044;-79
2023/05/09 03:46:15;;;;;;;31.67;17.17;;;11.30;99.90;;;;;;5067383;28;20025;-80
2023/05/09 03:48:44;;;;;;;21.45;15.80;;;11.40;99.90;;;;;;5066566;28;20044;-80
2023/05/09 03:51:11;;;;;;;22.38;16.80;;;11.50;99.90;;;;;;5048746;28;20030;-78
2023/05/09 03:53:40;;;;;;;21.95;15.80;;;11.50;99.90;;;;;;5048045;28;20064;-81
2023/05/09 03:56:08;;;;;;;24.75;15.98;;;11.60;99.90;;;;;;5064532;28;20026;-79
2023/05/09 03:58:40;;;;;;;24.23;15.85;;;11.60;99.90;;;;;;5055337;28;20032;-80
2023/05/09 04:01:07;;;;;;;23.08;17.33;;;11.70;99.90;;;;;;5055644;28;20037;-80
2023/05/09 04:03:34;;;;;;;23.38;15.07;;;11.70;99.90;;;;;;5052933;28;20022;-83
2023/05/09 04:06:00;;;;;;;21.38;15.05;;;11.80;99.90;;;;;;5050598;28;20046;-79
2023/05/09 04:08:34;;;;;;;22.80;16.52;;;11.80;99.90;;;;;;5051726;28;20021;-80
2023/05/09 04:11:02;;;;;;;23.38;16.02;;;12.00;99.90;;;;;;5048228;28;20037;-78
2023/05/09 04:13:30;;;;;;;24.60;16.63;;;12.00;99.90;;;;;;5052446;28;20034;-80
2023/05/09 04:15:58;;;;;;;22.65;15.55;;;12.00;99.90;;;;;;5046539;28;20025;-88
2023/05/09 04:18:26;;;;;;;25.33;17.33;;;12.10;99.90;;;;;;5065218;28;20021;-86
2023/05/09 04:20:53;;;;;;;22.85;16.73;;;12.20;99.90;;;;;;5047243;28;20041;-87
2023/05/09 04:23:19;;;;;;;20.40;15.95;;;12.20;99.90;;;;;;5049458;28;20029;-87
2023/05/09 04:25:46;;;;;;;21.65;15.32;;;12.20;99.90;;;;;;5050344;28;20030;-87
2023/05/09 04:28:12;;;;;;;25.23;16.20;;;12.30;99.90;;;;;;5050822;28;20128;-84
2023/05/09 04:30:38;;;;;;;20.50;15.65;;;12.40;99.90;;;;;;5049204;28;20060;-90
2023/05/09 04:33:05;;;;;;;21.15;14.15;;;12.50;99.90;;;;;;5065088;28;20054;-81
2023/05/09 04:35:32;;;;;;;20.00;16.42;;;12.50;99.90;;;;;;5047984;28;20034;-90
2023/05/09 04:37:58;;;;;;;20.98;13.70;;;12.60;99.90;;;;;;5044683;28;20048;-82
2023/05/09 04:40:25;;;;;;;19.83;12.88;;;12.60;99.90;;;;;;5049821;28;20048;-89
2023/05/09 04:42:58;;;;;;;20.95;13.32;;;12.60;99.90;;;;;;5048355;28;20031;-85
2023/05/09 04:45:27;;;;;;;18.45;14.00;;;12.70;99.90;;;;;;5047888;28;20040;-84
2023/05/09 04:47:54;;;;;;;18.58;12.95;;;12.80;99.90;;;;;;5064282;28;20037;-87
2023/05/09 04:50:20;;;;;;;18.77;13.90;;;12.80;99.90;;;;;;5051312;28;20025;-85
2023/05/09 04:52:46;;;;;;;17.90;13.88;;;12.80;99.90;;;;;;5052002;28;20047;-88
2023/05/09 04:55:12;;;;;;;20.63;15.52;;;13.00;99.90;;;;;;5050877;28;20037;-85
2023/05/09 04:57:43;;;;;;;18.15;14.27;;;13.00;99.90;;;;;;5050258;28;20042;-81
2023/05/09 05:00:11;;;;;;;17.88;13.95;;;13.10;99.90;;;;;;5050176;28;20064;-82
2023/05/09 05:02:37;;;;;;;21.77;17.33;;;13.10;99.90;;;;;;5049872;28;20034;-90
2023/05/09 05:05:05;;;;;;;20.73;17.08;;;13.20;99.90;;;;;;5065699;28;20050;-82
2023/05/09 05:07:34;;;;;;;22.40;17.30;;;13.20;99.90;;;;;;5049757;28;20032;-89
2023/05/09 05:10:00;;;;;;;20.38;15.82;;;13.30;99.90;;;;;;5048574;28;20068;-89
2023/05/09 05:12:27;;;;;;;23.95;17.73;;;13.40;99.90;;;;;;5050676;28;20044;-89
2023/05/09 05:14:54;;;;;;;28.08;18.33;;;13.50;92.80;;;;;;5049075;28;20032;-82
2023/05/09 05:17:23;;;;;;;23.90;18.92;;;13.60;45.50;;;;;;5053341;28;20033;-88
2023/05/09 05:19:50;;;;;;;22.55;16.85;;;13.70;25.40;;;;;;5053072;28;20070;-87
2023/05/09 05:22:16;;;;;;;27.35;18.20;;;13.90;4.20;;;;;;5030726;28;20017;-83
2023/05/09 05:24:45;;;;;;;22.30;14.73;;;13.90;1.00;;;;;;5049008;28;20029;-86
2023/05/09 05:27:11;;;;;;;24.60;14.70;;;14.00;1.00;;;;;;5064022;28;20026;-83
2023/05/09 05:29:38;;;;;;;23.02;16.10;;;14.10;99.90;;;;;;5046252;28;20044;-86
2023/05/09 05:32:05;;;;;;;20.80;14.05;;;14.20;99.90;;;;;;5048853;28;20012;-81
2023/05/09 05:34:31;;;;;;;19.52;14.35;;;14.30;99.90;;;;;;5050335;28;20060;-86
2023/05/09 05:36:57;;;;;;;25.73;17.27;;;14.40;99.90;;;;;;5062647;28;20048;-87
2023/05/09 05:39:24;;;;;;;18.40;15.38;;;14.40;99.90;;;;;;5048886;28;20034;-86
2023/05/09 05:41:52;;;;;;;24.73;16.05;;;14.60;99.90;;;;;;5062164;28;20046;-86
2023/05/09 05:44:19;;;;;;;27.55;16.60;;;14.70;99.90;;;;;;5050349;28;20033;-85
2023/05/09 05:46:45;;;;;;;23.85;17.77;;;14.90;99.90;;;;;;5052644;28;20029;-86
2023/05/09 05:49:11;;;;;;;27.02;17.85;;;15.00;99.90;;;;;;5060471;28;20038;-82
2023/05/09 05:51:37;;;;;;;25.73;19.15;;;15.10;99.90;;;;;;5046682;28;20033;-82
2023/05/09 05:54:05;;;;;;;29.85;19.33;;;15.30;99.90;;;;;;5064986;28;20048;-82
2023/05/09 05:56:32;;;;;;;32.75;19.70;;;15.50;83.90;;;;;;5067834;28;20033;-82
2023/05/09 05:58:58;;;;;;;30.38;20.10;;;15.70;11.80;;;;;;5050833;28;20025;-83
2023/05/09 06:01:25;;;;;;;23.70;18.65;;;15.80;1.00;;;;;;5053015;28;20037;-83
2023/05/09 06:03:53;;;;;;;27.90;18.95;;;16.00;2.00;;;;;;5048248;28;20032;-85
2023/05/09 06:06:22;;;;;;;30.85;19.85;;;16.20;1.00;;;;;;5042536;28;20032;-89
2023/05/09 06:08:48;;;;;;;23.08;18.65;;;16.40;1.00;;;;;;5047764;28;20076;-87
2023/05/09 06:11:15;;;;;;;28.85;19.73;;;16.40;1.00;;;;;;5049456;28;20021;-85
2023/05/09 06:13:41;;;;;;;23.20;18.00;;;16.40;1.00;;;;;;5051821;28;20033;-87
2023/05/09 06:16:08;;;;;;;25.77;18.27;;;16.50;1.00;;;;;;5045500;28;20075;-82
2023/05/09 06:18:36;;;;;;;23.70;16.95;;;16.50;1.00;;;;;;5052366;28;20017;-90
2023/05/09 06:21:03;;;;;;;26.75;18.45;;;16.60;1.00;;;;;;5049011;28;20044;-91
2023/05/09 06:23:29;;;;;;;25.23;18.63;;;16.60;1.00;;;;;;5049595;28;20025;-89
2023/05/09 06:25:55;;;;;;;24.70;16.58;;;16.70;1.00;;;;;;5050229;28;20051;-90
2023/05/09 06:28:21;;;;;;;22.05;16.05;;;16.70;99.90;;;;;;5050317;28;20030;-90
2023/05/09 06:30:47;;;;;;;24.42;17.90;;;16.60;1.00;;;;;;5054580;28;20040;-84
2023/05/09 06:33:14;;;;;;;24.63;18.05;;;16.60;1.00;;;;;;5052576;28;20034;-87
2023/05/09 06:35:40;;;;;;;25.67;18.58;;;16.60;1.00;;;;;;5051505;28;20047;-87
2023/05/09 06:38:06;;;;;;;32.33;18.65;;;16.50;1.00;;;;;;5052828;28;20032;-82
2023/05/09 06:40:32;;;;;;;29.45;19.05;;;16.40;1.00;;;;;;5046947;28;20037;-86
2023/05/09 06:42:59;;;;;;;31.17;19.35;;;16.40;1.00;;;;;;5053417;28;20033;-88
2023/05/09 06:45:26;;;;;;;25.60;18.95;;;16.50;1.00;;;;;;5052618;28;20022;-87
2023/05/09 06:47:54;;;;;;;34.30;21.45;;;16.60;1.00;;;;;;5049309;28;20088;-89
2023/05/09 06:50:21;;;;;;;27.30;18.30;;;16.60;99.90;;;;;;5047186;28;20026;-86
2023/05/09 06:52:47;;;;;;;31.42;18.98;;;16.70;99.90;;;;;;5048429;28;20026;-86
2023/05/09 06:55:13;;;;;;;30.15;18.90;;;16.70;99.90;;;;;;5050083;28;20037;-89
2023/05/09 06:57:39;;;;;;;29.92;19.60;;;16.60;99.90;;;;;;5048749;28;20030;-88
2023/05/09 07:00:06;;;;;;;31.85;20.73;;;16.50;1.00;;;;;;5052094;28;20048;-88
2023/05/09 07:02:32;;;;;;;36.70;20.92;;;16.40;1.00;;;;;;5054463;28;20037;-87
2023/05/09 07:04:58;;;;;;;29.63;19.92;;;16.50;1.00;;;;;;5050632;28;20041;-85
2023/05/09 07:07:25;;;;;;;31.73;20.88;;;16.50;1.00;;;;;;5053024;28;20028;-85
2023/05/09 07:09:51;;;;;;;29.63;20.50;;;16.50;1.00;;;;;;5040953;28;20045;-87
2023/05/09 07:12:17;;;;;;;31.23;20.02;;;16.50;1.00;;;;;;5050400;28;20029;-83
2023/05/09 07:14:43;;;;;;;31.90;21.33;;;16.60;1.00;;;;;;5051931;28;20036;-87
2023/05/09 07:17:09;;;;;;;33.53;20.55;;;16.40;1.00;;;;;;5050818;28;20037;-83
2023/05/09 07:19:36;;;;;;;31.65;20.90;;;16.50;1.00;;;;;;5051035;28;20030;-87
2023/05/09 07:22:02;;;;;;;35.95;21.75;;;16.40;1.00;;;;;;5047510;28;20019;-87
2023/05/09 07:24:28;;;;;;;30.95;21.58;;;16.40;1.00;;;;;;5050512;28;20028;-86
2023/05/09 07:26:54;;;;;;;36.42;20.33;;;16.40;1.00;;;;;;5062867;28;20029;-85
2023/05/09 07:29:20;;;;;;;34.53;22.15;;;16.50;1.00;;;;;;5041456;28;20024;-84
2023/05/09 07:31:46;;;;;;;31.50;19.35;;;16.60;1.00;;;;;;5050320;28;20025;-86
2023/05/09 07:34:15;;;;;;;27.80;18.45;;;16.80;99.90;;;;;;5041876;28;20036;-85
2023/05/09 07:36:41;;;;;;;28.40;18.10;;;16.90;99.90;;;;;;5050063;28;20021;-83
2023/05/09 07:39:08;;;;;;;32.42;19.45;;;17.10;99.90;;;;;;5053111;28;20030;-86
2023/05/09 07:41:34;;;;;;;26.95;18.25;;;17.30;99.90;;;;;;5047938;28;20039;-86
2023/05/09 07:44:00;;;;;;;27.58;18.08;;;17.60;99.90;;;;;;5047866;28;20033;-85
2023/05/09 07:46:26;;;;;;;27.23;16.38;;;17.80;99.90;;;;;;5055171;28;20055;-88
2023/05/09 07:48:52;;;;;;;24.92;16.75;;;17.80;99.90;;;;;;5051317;28;20017;-82
2023/05/09 07:51:18;;;;;;;26.88;16.80;;;17.80;99.90;;;;;;5050530;28;20029;-87
2023/05/09 07:53:45;;;;;;;26.33;16.05;;;17.70;99.90;;;;;;5049415;28;20031;-85
2023/05/09 07:56:12;;;;;;;26.20;16.55;;;17.90;99.90;;;;;;5043810;28;20031;-88
2023/05/09 07:58:38;;;;;;;27.10;16.45;;;18.00;99.90;;;;;;5048764;28;20024;-86
2023/05/09 08:01:04;;;;;;;22.73;15.38;;;18.20;99.90;;;;;;5049051;28;20047;-84
2023/05/09 08:03:30;;;;;;;21.67;15.23;;;18.40;99.90;;;;;;5048729;28;20036;-84
2023/05/09 08:05:56;;;;;;;27.35;16.60;;;18.20;99.90;;;;;;5048776;28;20034;-86
2023/05/09 08:08:27;;;;;;;25.25;17.27;;;18.30;99.90;;;;;;5044873;28;20038;-85
2023/05/09 08:10:53;;;;;;;30.00;17.75;;;18.10;99.90;;;;;;5042597;28;20040;-84
2023/05/09 08:13:19;;;;;;;24.77;16.92;;;17.80;99.90;;;;;;5033400;28;20037;-86
2023/05/09 08:15:45;;;;;;;29.35;17.70;;;17.80;99.90;;;;;;5030041;28;20029;-87
2023/05/09 08:18:11;;;;;;;23.27;17.65;;;17.90;99.90;;;;;;5030144;28;20451;-85
2023/05/09 08:20:38;;;;;;;28.30;18.38;;;17.90;99.90;;;;;;5027280;28;20040;-88
2023/05/09 08:23:04;;;;;;;26.52;18.15;;;18.00;99.90;;;;;;5028445;28;20042;-84
2023/05/09 08:25:30;;;;;;;25.55;17.65;;;18.10;99.90;;;;;;5027299;28;20026;-87
2023/05/09 08:27:57;;;;;;;26.05;17.67;;;18.70;99.90;;;;;;5042746;28;20029;-84
2023/05/09 08:30:23;;;;;;;30.48;19.20;;;19.00;99.90;;;;;;5026108;28;20035;-87
2023/05/09 08:32:49;;;;;;;28.95;18.92;;;19.10;99.90;;;;;;5019973;28;20374;-83
2023/05/09 08:35:16;;;;;;;27.15;18.67;;;18.80;99.90;;;;;;5025245;28;20025;-86
2023/05/09 08:37:42;;;;;;;27.20;19.83;;;18.70;99.90;;;;;;5027901;28;20025;-85
2023/05/09 08:40:09;;;;;;;25.55;17.15;;;18.70;99.90;;;;;;5025812;28;20033;-85
2023/05/09 08:42:37;;;;;;;24.15;17.85;;;18.70;99.90;;;;;;5021878;28;20041;-83
2023/05/09 08:45:09;;;;;;;24.63;17.73;;;18.40;99.90;;;;;;5026970;28;20045;-86
2023/05/09 08:47:37;;;;;;;28.55;18.92;;;18.50;99.90;;;;;;5027820;28;20046;-88
2023/05/09 08:50:04;;;;;;;28.15;18.02;;;18.60;99.90;;;;;;5029798;28;20030;-86
2023/05/09 08:52:32;;;;;;;27.98;19.45;;;18.50;99.90;;;;;;5023287;28;20046;-87
2023/05/09 08:55:03;;;;;;;26.83;18.73;;;18.70;99.90;;;;;;5025479;28;20041;-87
2023/05/09 08:57:33;;;;;;;27.23;19.27;;;19.00;99.90;;;;;;5026467;28;20382;-85
2023/05/09 09:00:00;;;;;;;27.88;19.17;;;19.40;99.90;;;;;;5021246;28;20500;-84
2023/05/09 09:02:26;;;;;;;27.17;19.42;;;19.10;99.90;;;;;;5025451;28;20025;-85
2023/05/09 09:04:53;;;;;;;25.58;18.75;;;19.40;99.90;;;;;;5026779;28;20032;-84
2023/05/09 09:07:20;;;;;;;25.35;17.10;;;19.60;99.90;;;;;;5025447;28;20052;-87
2023/05/09 09:09:48;;;;;;;27.52;18.42;;;19.70;99.90;;;;;;5019860;28;20034;-85
2023/05/09 09:12:15;;;;;;;26.52;18.08;;;19.90;99.90;;;;;;5025840;28;20033;-87
2023/05/09 09:14:48;;;;;;;24.80;17.20;;;19.80;99.90;;;;;;5025106;28;20025;-86
2023/05/09 09:17:17;;;;;;;22.95;17.17;;;19.50;99.90;;;;;;5023010;28;20042;-85
2023/05/09 09:19:46;;;;;;;21.92;16.08;;;19.50;99.90;;;;;;5020781;28;20033;-86
2023/05/09 09:22:15;;;;;;;26.30;17.70;;;19.40;99.90;;;;;;5028134;28;20454;-81
2023/05/09 09:24:41;;;;;;;24.00;16.83;;;19.20;99.90;;;;;;5029562;28;20025;-86
2023/05/09 09:27:07;;;;;;;23.30;16.85;;;19.00;99.90;;;;;;5027478;28;20037;-85
2023/05/09 09:29:33;;;;;;;23.48;16.83;;;19.20;99.90;;;;;;5025178;28;20060;-87
2023/05/09 09:32:04;;;;;;;22.05;15.55;;;19.50;99.90;;;;;;5026625;28;20044;-85
2023/05/09 09:34:30;;;;;;;22.23;16.70;;;19.60;99.90;;;;;;5025854;28;20450;-85
2023/05/09 09:36:57;;;;;;;20.63;15.45;;;19.60;99.90;;;;;;5026034;28;20032;-85
2023/05/09 09:39:23;;;;;;;22.70;15.88;;;19.70;99.90;;;;;;5019421;28;20044;-86
2023/05/09 09:41:50;;;;;;;23.85;16.75;;;19.40;99.90;;;;;;5019959;28;20061;-87
2023/05/09 09:44:18;;;;;;;23.05;16.38;;;19.30;99.90;;;;;;5025030;28;20032;-84
2023/05/09 09:46:47;;;;;;;20.33;16.30;;;19.40;99.90;;;;;;5029345;28;20050;-85
2023/05/09 09:49:15;;;;;;;22.48;17.02;;;19.40;99.90;;;;;;5027517;28;20045;-86
2023/05/09 09:51:41;;;;;;;21.10;15.90;;;19.30;99.90;;;;;;5024071;28;20040;-85
2023/05/09 09:54:09;;;;;;;19.25;15.43;;;19.30;99.90;;;;;;5028618;28;20443;-86
2023/05/09 09:56:39;;;;;;;21.77;16.52;;;19.30;99.90;;;;;;5030606;28;20026;-88
2023/05/09 09:59:11;;;;;;;24.13;16.20;;;19.40;99.90;;;;;;5030587;28;20021;-83
2023/05/09 10:01:56;;;;;;;19.92;15.32;;;19.20;99.90;;;;;;5021948;28;20057;-84
2023/05/09 10:04:23;;;;;;;22.05;16.23;;;19.10;99.90;;;;;;5030810;28;20052;-85
2023/05/09 10:07:02;;;;;;;29.15;15.40;;;19.30;99.90;;;;;;5030594;28;20026;-84
2023/05/09 10:09:28;;;;;;;18.85;14.88;;;19.60;99.90;;;;;;5030754;28;20032;-83
2023/05/09 10:11:55;;;;;;;18.75;13.60;;;19.80;99.90;;;;;;5045887;28;20041;-87
2023/05/09 10:14:23;;;;;;;17.48;13.60;;;19.90;99.90;;;;;;5025018;28;20048;-84
2023/05/09 10:17:01;;;;;;;19.85;14.38;;;19.70;99.90;;;;;;5029512;28;20088;-83
2023/05/09 10:19:29;;;;;;;19.30;13.95;;;19.60;99.90;;;;;;5027814;28;20025;-83
2023/05/09 10:21:57;;;;;;;16.52;13.23;;;20.20;99.90;;;;;;5026646;28;20068;-87
2023/05/09 10:24:41;;;;;;;19.50;14.48;;;20.70;99.90;;;;;;5027484;28;20030;-84
2023/05/09 10:27:10;;;;;;;19.38;13.73;;;21.20;76.90;;;;;;5023624;28;20048;-86
2023/05/09 10:29:40;;;;;;;15.77;13.10;;;21.30;70.10;;;;;;5038848;28;20037;-85
2023/05/09 10:32:35;;;;;;;14.27;12.70;;;21.30;57.70;;;;;;5030746;28;20033;-85
2023/05/09 10:35:06;;;;;;;11.25;9.98;;;21.10;56.70;;;;;;5027737;28;20045;-84
2023/05/09 10:37:34;;;;;;;17.95;12.82;;;21.10;46.10;;;;;;5025994;28;20041;-84
2023/05/09 10:40:03;;;;;;;20.70;13.82;;;20.90;56.00;;;;;;5028383;28;20030;-81
2023/05/09 10:42:30;;;;;;;18.13;12.38;;;20.60;93.00;;;;;;5029105;28;20046;-84
2023/05/09 10:44:56;;;;;;;17.40;13.20;;;21.30;93.30;;;;;;5025814;28;20037;-87
2023/05/09 10:47:26;;;;;;;18.50;14.73;;;21.50;41.30;;;;;;5028369;28;20030;-84
2023/05/09 10:49:53;;;;;;;15.05;12.35;;;21.10;42.60;;;;;;5037125;28;20034;-84
2023/05/09 10:52:23;;;;;;;13.85;11.00;;;21.00;67.50;;;;;;5028332;28;20034;-85
2023/05/09 10:55:00;;;;;;;13.90;10.55;;;21.40;76.70;;;;;;5027952;28;20025;-86
2023/05/09 10:57:30;;;;;;;13.10;9.68;;;21.80;36.60;;;;;;5020292;28;20038;-83
2023/05/09 10:59:57;;;;;;;;;;;21.50;7.80;;;;;;5025647;28;20041;-86
2023/05/09 11:02:31;;;;;;;12.57;9.43;;;21.40;9.90;;;;;;5027820;28;19908;-83
2023/05/09 11:05:18;;;;;;;13.52;10.73;;;21.30;9.50;;;;;;5038673;28;20065;-88
2023/05/09 11:07:44;;;;;;;13.98;10.63;;;20.80;38.20;;;;;;5028781;28;20052;-84
2023/05/09 11:10:17;;;;;;;12.25;10.43;;;20.70;60.10;;;;;;5028667;28;20383;-84
2023/05/09 11:12:58;;;;;;;12.63;10.13;;;20.70;56.70;;;;;;5024322;28;20034;-84
2023/05/09 11:15:26;;;;;;;12.02;9.52;;;20.80;44.30;;;;;;5027439;28;20033;-83
2023/05/09 11:18:11;;;;;;;12.52;9.52;;;21.10;38.10;;;;;;5051518;28;20038;-86
2023/05/09 11:20:45;;;;;;;13.50;10.73;;;21.30;31.50;;;;;;5031442;28;20033;-87
2023/05/09 11:23:16;;;;;;;11.38;9.65;;;21.70;1.00;;;;;;5028246;28;20034;-85
2023/05/09 11:25:46;;;;;;;9.90;8.60;;;22.10;1.00;;;;;;5034020;28;20279;-84
2023/05/09 11:28:29;;;;;;;10.18;8.05;;;22.00;1.00;;;;;;5046838;28;20044;-84
2023/05/09 11:31:27;;;;;;;12.30;9.77;;;21.60;8.00;;;;;;5047064;28;20112;-85
2023/05/09 11:34:03;;;;;;;9.90;7.45;;;21.40;14.00;;;;;;5030470;28;20049;-84
2023/05/09 11:36:33;;;;;;;9.85;8.68;;;21.60;1.00;;;;;;5045795;28;20034;-84
2023/05/09 11:39:09;;;;;;;9.18;8.05;;;21.60;1.00;;;;;;5045995;28;20041;-87
2023/05/09 11:41:44;;;;;;;10.60;8.02;;;21.80;1.00;;;;;;5023492;28;20046;-85
2023/05/09 11:44:20;;;;;;;10.85;7.72;;;21.80;1.00;;;;;;5028554;28;20034;-85
2023/05/09 11:46:48;;;;;;;10.05;7.70;;;21.80;1.00;;;;;;5027539;28;20029;-86
2023/05/09 11:49:15;;;;;;;8.50;7.10;;;22.00;1.10;;;;;;5026735;28;20056;-86
2023/05/09 11:51:41;;;;;;;9.35;6.97;;;22.30;1.00;;;;;;5027293;28;20360;-85
2023/05/09 11:54:09;;;;;;;8.20;6.47;;;22.00;1.00;;;;;;5022277;28;20379;-85
2023/05/09 11:56:38;;;;;;;7.10;5.55;;;21.90;1.00;;;;;;5025819;28;20032;-85
2023/05/09 11:59:06;;;;;;;10.35;7.55;;;21.90;1.00;;;;;;5024845;28;20029;-84
2023/05/09 12:01:32;;;;;;;7.93;6.30;;;21.60;1.00;;;;;;5024251;28;20040;-86
2023/05/09 12:03:59;;;;;;;7.03;5.85;;;21.60;1.00;;;;;;5028934;28;20366;-87
2023/05/09 12:06:25;;;;;;;9.07;5.75;;;21.60;1.00;;;;;;5025080;28;20370;-83
2023/05/09 12:08:54;;;;;;;10.30;5.82;;;22.00;1.00;;;;;;5025113;28;20029;-86
2023/05/09 12:11:20;;;;;;;7.78;5.45;;;21.80;1.00;;;;;;5026461;28;20040;-85
2023/05/09 12:13:48;;;;;;;6.47;5.13;;;21.90;1.00;;;;;;5023463;28;20100;-86
2023/05/09 12:16:16;;;;;;;7.68;4.68;;;22.10;1.00;;;;;;5023034;28;20037;-84
2023/05/09 12:18:49;;;;;;;5.70;5.03;;;21.90;1.00;;;;;;5021052;28;20022;-83
2023/05/09 12:21:20;;;;;;;7.22;5.20;;;21.80;1.00;;;;;;5021853;28;20044;-83
2023/05/09 12:23:46;;;;;;;8.15;5.85;;;22.00;1.00;;;;;;5024257;28;20445;-83
2023/05/09 12:26:13;;;;;;;7.03;5.47;;;22.20;1.00;;;;;;5026339;28;20037;-85
2023/05/09 12:28:40;;;;;;;7.95;4.55;;;22.00;1.00;;;;;;5025796;28;20036;-85
2023/05/09 12:31:06;;;;;;;6.43;5.10;;;22.00;1.00;;;;;;5025002;28;20021;-86
2023/05/09 12:33:33;;;;;;;7.15;5.15;;;22.10;1.00;;;;;;5022615;28;20029;-86
2023/05/09 12:36:03;;;;;;;7.53;5.60;;;22.30;1.00;;;;;;5039672;28;20060;-87